Airport View

Enter AWOS ICAO identifier for current METAR.

ex. KFNL

KCSQ 080500Z AUTO 18006KT 10SM CLR 24/24 A2995 RMK AO2

8 Jul 2020 05:02

Frequency: 124.75

Phone: 641-782-6286

Other Area AWOS: KI75 - KLWD - KICL - KAIO

TAF KDSM 072335Z 0800/0824 21005KT P6SM SCT050 FM080200 17005KT P6SM SKC FM081600 20010KT P6SM SCT050